Terminal Aerodrome Forecast
Issued by NWS

Home | Current Version | Previous Version | Graphics & Text | Print | Product List | Glossary On
Versions: 1 2 3 4 5 6 7 8 9 10 11 12 13 14 15
000
FTUS43 KMPX 250525
TAFRWF
TAF
KRWF 250525Z 2506/2606 33007KT P6SM BKN100
     FM250800 03004KT P6SM OVC050
     FM251000 05006KT 2SM -SN SCT012 OVC020
      TEMPO 2512/2515 1/2SM SN VV007
     FM251800 03010KT 3SM -SN BKN020 OVC040
     FM252000 01011G19KT P6SM BKN040
     FM260300 35012G19KT P6SM SCT050=

USA.gov is the U.S. government's official web portal to all federal, state and local government web resources and services.